sensor_id;sensor_type;location;lat;lon;timestamp;P1;durP1;ratioP1;P2;durP2;ratioP2
62990;SDS011;49084;48.204;16.202;2023-08-12T00:00:18;4.63;;;3.72;;
62990;SDS011;49084;48.204;16.202;2023-08-12T00:02:44;3.92;;;3.63;;
62990;SDS011;49084;48.204;16.202;2023-08-12T00:05:11;5.25;;;3.60;;
62990;SDS011;49084;48.204;16.202;2023-08-12T00:07:37;10.45;;;4.32;;
62990;SDS011;49084;48.204;16.202;2023-08-12T00:10:04;4.85;;;3.97;;
62990;SDS011;49084;48.204;16.202;2023-08-12T00:12:31;7.60;;;4.20;;
62990;SDS011;49084;48.204;16.202;2023-08-12T00:14:57;5.68;;;3.60;;
62990;SDS011;49084;48.204;16.202;2023-08-12T00:17:25;9.18;;;4.20;;
62990;SDS011;49084;48.204;16.202;2023-08-12T00:19:51;7.50;;;4.00;;
62990;SDS011;49084;48.204;16.202;2023-08-12T00:22:17;5.75;;;3.60;;
62990;SDS011;49084;48.204;16.202;2023-08-12T00:24:49;5.43;;;3.53;;
62990;SDS011;49084;48.204;16.202;2023-08-12T00:27:14;4.13;;;3.70;;
62990;SDS011;49084;48.204;16.202;2023-08-12T00:29:40;8.20;;;4.13;;
62990;SDS011;49084;48.204;16.202;2023-08-12T00:32:08;4.68;;;4.05;;
62990;SDS011;49084;48.204;16.202;2023-08-12T00:34:34;8.00;;;3.75;;
62990;SDS011;49084;48.204;16.202;2023-08-12T00:37:00;4.00;;;3.60;;
62990;SDS011;49084;48.204;16.202;2023-08-12T00:39:26;4.38;;;3.55;;
62990;SDS011;49084;48.204;16.202;2023-08-12T00:41:51;7.45;;;3.97;;
62990;SDS011;49084;48.204;16.202;2023-08-12T00:44:17;5.63;;;3.60;;
62990;SDS011;49084;48.204;16.202;2023-08-12T00:46:43;4.65;;;4.10;;
62990;SDS011;49084;48.204;16.202;2023-08-12T00:49:09;4.85;;;3.42;;
62990;SDS011;49084;48.204;16.202;2023-08-12T00:51:36;8.40;;;3.75;;
62990;SDS011;49084;48.204;16.202;2023-08-12T00:54:06;4.68;;;3.58;;
62990;SDS011;49084;48.204;16.202;2023-08-12T00:56:33;4.55;;;4.05;;
62990;SDS011;49084;48.204;16.202;2023-08-12T00:59:00;4.78;;;3.55;;
62990;SDS011;49084;48.204;16.202;2023-08-12T01:01:29;6.60;;;3.97;;
62990;SDS011;49084;48.204;16.202;2023-08-12T01:03:56;5.28;;;4.03;;
62990;SDS011;49084;48.204;16.202;2023-08-12T01:06:23;4.82;;;3.97;;
62990;SDS011;49084;48.204;16.202;2023-08-12T01:08:49;5.03;;;3.88;;
62990;SDS011;49084;48.204;16.202;2023-08-12T01:11:21;4.22;;;3.83;;
62990;SDS011;49084;48.204;16.202;2023-08-12T01:14:04;6.05;;;4.70;;
62990;SDS011;49084;48.204;16.202;2023-08-12T01:16:51;5.68;;;3.88;;
62990;SDS011;49084;48.204;16.202;2023-08-12T01:19:42;8.80;;;3.97;;
62990;SDS011;49084;48.204;16.202;2023-08-12T01:22:10;6.40;;;4.43;;
62990;SDS011;49084;48.204;16.202;2023-08-12T01:24:40;4.03;;;3.63;;
62990;SDS011;49084;48.204;16.202;2023-08-12T01:27:08;4.72;;;3.70;;
62990;SDS011;49084;48.204;16.202;2023-08-12T01:29:38;4.53;;;4.10;;
62990;SDS011;49084;48.204;16.202;2023-08-12T01:35:14;5.60;;;4.22;;
62990;SDS011;49084;48.204;16.202;2023-08-12T01:37:42;4.35;;;3.95;;
62990;SDS011;49084;48.204;16.202;2023-08-12T01:40:09;6.38;;;3.60;;
62990;SDS011;49084;48.204;16.202;2023-08-12T01:42:35;4.28;;;3.88;;
62990;SDS011;49084;48.204;16.202;2023-08-12T01:45:03;4.90;;;4.40;;
62990;SDS011;49084;48.204;16.202;2023-08-12T01:47:29;7.72;;;4.40;;
62990;SDS011;49084;48.204;16.202;2023-08-12T01:49:55;4.20;;;3.80;;
62990;SDS011;49084;48.204;16.202;2023-08-12T01:52:21;4.75;;;4.00;;
62990;SDS011;49084;48.204;16.202;2023-08-12T01:54:47;5.20;;;3.80;;
62990;SDS011;49084;48.204;16.202;2023-08-12T01:57:13;5.07;;;4.30;;
62990;SDS011;49084;48.204;16.202;2023-08-12T01:59:39;8.23;;;4.40;;
62990;SDS011;49084;48.204;16.202;2023-08-12T02:02:04;5.93;;;4.45;;
62990;SDS011;49084;48.204;16.202;2023-08-12T02:04:30;5.90;;;4.93;;
62990;SDS011;49084;48.204;16.202;2023-08-12T02:06:56;5.22;;;3.92;;
62990;SDS011;49084;48.204;16.202;2023-08-12T02:09:22;4.28;;;3.90;;
62990;SDS011;49084;48.204;16.202;2023-08-12T02:11:48;8.25;;;4.55;;
62990;SDS011;49084;48.204;16.202;2023-08-12T02:14:14;5.22;;;4.28;;
62990;SDS011;49084;48.204;16.202;2023-08-12T02:16:40;5.05;;;4.35;;
62990;SDS011;49084;48.204;16.202;2023-08-12T02:19:06;7.60;;;4.18;;
62990;SDS011;49084;48.204;16.202;2023-08-12T02:21:31;7.82;;;4.47;;
62990;SDS011;49084;48.204;16.202;2023-08-12T02:23:57;4.35;;;3.95;;
62990;SDS011;49084;48.204;16.202;2023-08-12T02:26:23;4.47;;;4.07;;
62990;SDS011;49084;48.204;16.202;2023-08-12T02:28:48;6.25;;;4.03;;
62990;SDS011;49084;48.204;16.202;2023-08-12T02:31:17;5.85;;;4.45;;
62990;SDS011;49084;48.204;16.202;2023-08-12T02:33:43;6.25;;;4.80;;
62990;SDS011;49084;48.204;16.202;2023-08-12T02:36:08;7.13;;;4.35;;
62990;SDS011;49084;48.204;16.202;2023-08-12T02:38:34;4.53;;;4.10;;
62990;SDS011;49084;48.204;16.202;2023-08-12T02:41:00;5.00;;;4.50;;
62990;SDS011;49084;48.204;16.202;2023-08-12T02:43:25;5.07;;;4.57;;
62990;SDS011;49084;48.204;16.202;2023-08-12T02:45:51;6.80;;;4.07;;
62990;SDS011;49084;48.204;16.202;2023-08-12T02:48:17;4.80;;;4.30;;
62990;SDS011;49084;48.204;16.202;2023-08-12T02:50:43;6.20;;;5.15;;
62990;SDS011;49084;48.204;16.202;2023-08-12T02:53:09;8.75;;;4.60;;
62990;SDS011;49084;48.204;16.202;2023-08-12T02:55:34;5.30;;;3.92;;
62990;SDS011;49084;48.204;16.202;2023-08-12T02:58:01;8.40;;;4.55;;
62990;SDS011;49084;48.204;16.202;2023-08-12T03:00:28;6.25;;;4.30;;
62990;SDS011;49084;48.204;16.202;2023-08-12T03:02:53;5.38;;;3.90;;
62990;SDS011;49084;48.204;16.202;2023-08-12T03:05:19;6.00;;;4.78;;
62990;SDS011;49084;48.204;16.202;2023-08-12T03:07:45;5.63;;;4.65;;
62990;SDS011;49084;48.204;16.202;2023-08-12T03:10:11;5.00;;;4.53;;
62990;SDS011;49084;48.204;16.202;2023-08-12T03:12:37;5.85;;;4.00;;
62990;SDS011;49084;48.204;16.202;2023-08-12T03:15:03;7.38;;;4.32;;
62990;SDS011;49084;48.204;16.202;2023-08-12T03:17:30;6.20;;;4.63;;
62990;SDS011;49084;48.204;16.202;2023-08-12T03:19:56;6.80;;;4.40;;
62990;SDS011;49084;48.204;16.202;2023-08-12T03:22:24;5.28;;;4.78;;
62990;SDS011;49084;48.204;16.202;2023-08-12T03:24:53;6.32;;;4.43;;
62990;SDS011;49084;48.204;16.202;2023-08-12T03:27:18;4.72;;;4.32;;
62990;SDS011;49084;48.204;16.202;2023-08-12T03:29:44;5.88;;;4.35;;
62990;SDS011;49084;48.204;16.202;2023-08-12T03:32:10;6.43;;;4.85;;
62990;SDS011;49084;48.204;16.202;2023-08-12T03:34:35;5.15;;;4.38;;
62990;SDS011;49084;48.204;16.202;2023-08-12T03:37:01;6.40;;;4.78;;
62990;SDS011;49084;48.204;16.202;2023-08-12T03:39:26;6.00;;;4.53;;
62990;SDS011;49084;48.204;16.202;2023-08-12T03:41:52;5.07;;;4.57;;
62990;SDS011;49084;48.204;16.202;2023-08-12T03:44:18;5.32;;;4.45;;
62990;SDS011;49084;48.204;16.202;2023-08-12T03:46:44;5.80;;;4.30;;
62990;SDS011;49084;48.204;16.202;2023-08-12T03:49:10;5.60;;;4.65;;
62990;SDS011;49084;48.204;16.202;2023-08-12T03:51:35;6.68;;;3.97;;
62990;SDS011;49084;48.204;16.202;2023-08-12T03:54:01;6.30;;;4.32;;
62990;SDS011;49084;48.204;16.202;2023-08-12T03:56:27;4.57;;;4.18;;
62990;SDS011;49084;48.204;16.202;2023-08-12T03:58:52;6.32;;;4.60;;
62990;SDS011;49084;48.204;16.202;2023-08-12T04:01:18;4.47;;;4.07;;
62990;SDS011;49084;48.204;16.202;2023-08-12T04:03:43;5.32;;;4.00;;
62990;SDS011;49084;48.204;16.202;2023-08-12T04:06:09;5.18;;;4.32;;
62990;SDS011;49084;48.204;16.202;2023-08-12T04:08:34;4.63;;;4.10;;
62990;SDS011;49084;48.204;16.202;2023-08-12T04:11:00;5.25;;;4.20;;
62990;SDS011;49084;48.204;16.202;2023-08-12T04:13:26;7.25;;;4.60;;
62990;SDS011;49084;48.204;16.202;2023-08-12T04:15:52;8.00;;;4.40;;
62990;SDS011;49084;48.204;16.202;2023-08-12T04:18:20;7.40;;;4.28;;
62990;SDS011;49084;48.204;16.202;2023-08-12T04:20:48;4.97;;;4.07;;
62990;SDS011;49084;48.204;16.202;2023-08-12T04:23:15;7.55;;;4.32;;
62990;SDS011;49084;48.204;16.202;2023-08-12T04:25:44;7.97;;;4.03;;
62990;SDS011;49084;48.204;16.202;2023-08-12T04:28:13;7.63;;;4.40;;
62990;SDS011;49084;48.204;16.202;2023-08-12T04:30:43;4.47;;;3.80;;
62990;SDS011;49084;48.204;16.202;2023-08-12T04:33:10;4.80;;;4.30;;
62990;SDS011;49084;48.204;16.202;2023-08-12T04:35:37;4.40;;;4.00;;
62990;SDS011;49084;48.204;16.202;2023-08-12T04:38:03;5.55;;;4.55;;
62990;SDS011;49084;48.204;16.202;2023-08-12T04:40:29;6.05;;;4.28;;
62990;SDS011;49084;48.204;16.202;2023-08-12T04:42:54;5.80;;;3.95;;
62990;SDS011;49084;48.204;16.202;2023-08-12T04:45:20;4.53;;;4.13;;
62990;SDS011;49084;48.204;16.202;2023-08-12T04:47:46;4.53;;;4.10;;
62990;SDS011;49084;48.204;16.202;2023-08-12T04:50:11;4.20;;;3.72;;
62990;SDS011;49084;48.204;16.202;2023-08-12T04:52:37;6.00;;;4.25;;
62990;SDS011;49084;48.204;16.202;2023-08-12T04:55:02;6.57;;;4.00;;
62990;SDS011;49084;48.204;16.202;2023-08-12T04:57:29;4.68;;;3.90;;
62990;SDS011;49084;48.204;16.202;2023-08-12T04:59:55;6.28;;;3.63;;
62990;SDS011;49084;48.204;16.202;2023-08-12T05:02:21;5.03;;;3.60;;
62990;SDS011;49084;48.204;16.202;2023-08-12T05:04:50;3.72;;;3.40;;
62990;SDS011;49084;48.204;16.202;2023-08-12T05:07:16;5.28;;;3.35;;
62990;SDS011;49084;48.204;16.202;2023-08-12T05:09:42;3.75;;;3.42;;
62990;SDS011;49084;48.204;16.202;2023-08-12T05:12:11;5.40;;;3.13;;
62990;SDS011;49084;48.204;16.202;2023-08-12T05:14:37;4.57;;;3.10;;
62990;SDS011;49084;48.204;16.202;2023-08-12T05:17:04;4.25;;;3.70;;
62990;SDS011;49084;48.204;16.202;2023-08-12T05:19:30;5.95;;;3.60;;
62990;SDS011;49084;48.204;16.202;2023-08-12T05:21:56;3.78;;;3.20;;
62990;SDS011;49084;48.204;16.202;2023-08-12T05:24:21;4.07;;;3.20;;
62990;SDS011;49084;48.204;16.202;2023-08-12T05:26:47;5.13;;;3.20;;
62990;SDS011;49084;48.204;16.202;2023-08-12T05:29:14;3.58;;;3.28;;
62990;SDS011;49084;48.204;16.202;2023-08-12T05:31:39;8.18;;;3.40;;
62990;SDS011;49084;48.204;16.202;2023-08-12T05:34:05;6.47;;;4.00;;
62990;SDS011;49084;48.204;16.202;2023-08-12T05:36:31;3.90;;;3.40;;
62990;SDS011;49084;48.204;16.202;2023-08-12T05:38:56;4.88;;;3.05;;
62990;SDS011;49084;48.204;16.202;2023-08-12T05:41:22;2.75;;;2.55;;
62990;SDS011;49084;48.204;16.202;2023-08-12T05:43:48;3.20;;;2.67;;
62990;SDS011;49084;48.204;16.202;2023-08-12T05:46:14;2.78;;;2.58;;
62990;SDS011;49084;48.204;16.202;2023-08-12T05:48:39;3.45;;;2.53;;
62990;SDS011;49084;48.204;16.202;2023-08-12T05:51:05;5.72;;;2.78;;
62990;SDS011;49084;48.204;16.202;2023-08-12T05:53:31;3.60;;;2.75;;
62990;SDS011;49084;48.204;16.202;2023-08-12T05:55:57;5.40;;;2.53;;
62990;SDS011;49084;48.204;16.202;2023-08-12T05:58:23;3.47;;;2.58;;
62990;SDS011;49084;48.204;16.202;2023-08-12T06:00:49;3.03;;;2.72;;
62990;SDS011;49084;48.204;16.202;2023-08-12T06:03:15;3.20;;;2.63;;
62990;SDS011;49084;48.204;16.202;2023-08-12T06:05:41;2.47;;;2.20;;
62990;SDS011;49084;48.204;16.202;2023-08-12T06:08:11;3.13;;;2.00;;
62990;SDS011;49084;48.204;16.202;2023-08-12T06:10:36;4.00;;;2.22;;
62990;SDS011;49084;48.204;16.202;2023-08-12T06:13:02;2.30;;;2.10;;
62990;SDS011;49084;48.204;16.202;2023-08-12T06:15:28;2.38;;;2.20;;
62990;SDS011;49084;48.204;16.202;2023-08-12T06:17:54;3.33;;;2.38;;
62990;SDS011;49084;48.204;16.202;2023-08-12T06:20:20;3.42;;;2.00;;
62990;SDS011;49084;48.204;16.202;2023-08-12T06:22:45;2.30;;;2.10;;
62990;SDS011;49084;48.204;16.202;2023-08-12T06:25:11;4.80;;;2.05;;
62990;SDS011;49084;48.204;16.202;2023-08-12T06:27:37;3.10;;;1.90;;
62990;SDS011;49084;48.204;16.202;2023-08-12T06:30:03;2.75;;;1.80;;
62990;SDS011;49084;48.204;16.202;2023-08-12T06:32:29;2.13;;;1.80;;
62990;SDS011;49084;48.204;16.202;2023-08-12T06:34:54;2.60;;;1.80;;
62990;SDS011;49084;48.204;16.202;2023-08-12T06:37:20;2.55;;;1.58;;
62990;SDS011;49084;48.204;16.202;2023-08-12T06:39:46;1.85;;;1.73;;
62990;SDS011;49084;48.204;16.202;2023-08-12T06:42:11;2.00;;;1.90;;
62990;SDS011;49084;48.204;16.202;2023-08-12T06:44:37;2.80;;;2.00;;
62990;SDS011;49084;48.204;16.202;2023-08-12T06:47:02;2.72;;;2.00;;
62990;SDS011;49084;48.204;16.202;2023-08-12T06:49:28;3.80;;;1.75;;
62990;SDS011;49084;48.204;16.202;2023-08-12T06:51:54;3.03;;;2.65;;
62990;SDS011;49084;48.204;16.202;2023-08-12T06:54:19;5.03;;;2.08;;
62990;SDS011;49084;48.204;16.202;2023-08-12T06:56:47;3.77;;;2.20;;
62990;SDS011;49084;48.204;16.202;2023-08-12T06:59:13;2.13;;;1.58;;
62990;SDS011;49084;48.204;16.202;2023-08-12T07:01:39;3.40;;;1.92;;
62990;SDS011;49084;48.204;16.202;2023-08-12T07:04:05;2.75;;;2.13;;
62990;SDS011;49084;48.204;16.202;2023-08-12T07:06:30;3.50;;;2.17;;
62990;SDS011;49084;48.204;16.202;2023-08-12T07:08:56;1.75;;;1.60;;
62990;SDS011;49084;48.204;16.202;2023-08-12T07:11:22;7.63;;;1.75;;
62990;SDS011;49084;48.204;16.202;2023-08-12T07:13:47;5.57;;;1.73;;
62990;SDS011;49084;48.204;16.202;2023-08-12T07:16:13;2.95;;;1.90;;
62990;SDS011;49084;48.204;16.202;2023-08-12T07:18:39;2.25;;;1.98;;
62990;SDS011;49084;48.204;16.202;2023-08-12T07:21:04;4.43;;;1.92;;
62990;SDS011;49084;48.204;16.202;2023-08-12T07:23:30;2.20;;;2.00;;
62990;SDS011;49084;48.204;16.202;2023-08-12T07:25:56;3.75;;;2.05;;
62990;SDS011;49084;48.204;16.202;2023-08-12T07:28:22;1.85;;;1.70;;
62990;SDS011;49084;48.204;16.202;2023-08-12T07:30:48;3.22;;;2.42;;
62990;SDS011;49084;48.204;16.202;2023-08-12T07:33:14;2.35;;;1.90;;
62990;SDS011;49084;48.204;16.202;2023-08-12T07:35:40;2.72;;;1.70;;
62990;SDS011;49084;48.204;16.202;2023-08-12T07:38:06;2.53;;;1.70;;
62990;SDS011;49084;48.204;16.202;2023-08-12T07:40:32;1.80;;;1.70;;
62990;SDS011;49084;48.204;16.202;2023-08-12T07:42:57;3.63;;;1.80;;
62990;SDS011;49084;48.204;16.202;2023-08-12T07:45:23;2.17;;;1.85;;
62990;SDS011;49084;48.204;16.202;2023-08-12T07:47:49;4.28;;;2.53;;
62990;SDS011;49084;48.204;16.202;2023-08-12T07:50:15;3.30;;;1.70;;
62990;SDS011;49084;48.204;16.202;2023-08-12T07:52:40;5.70;;;2.13;;
62990;SDS011;49084;48.204;16.202;2023-08-12T07:55:06;2.00;;;1.80;;
62990;SDS011;49084;48.204;16.202;2023-08-12T07:57:32;1.83;;;1.73;;
62990;SDS011;49084;48.204;16.202;2023-08-12T07:59:57;2.33;;;1.90;;
62990;SDS011;49084;48.204;16.202;2023-08-12T08:02:23;2.25;;;2.08;;
62990;SDS011;49084;48.204;16.202;2023-08-12T08:04:49;2.88;;;1.80;;
62990;SDS011;49084;48.204;16.202;2023-08-12T08:07:15;3.47;;;2.35;;
62990;SDS011;49084;48.204;16.202;2023-08-12T08:09:41;2.80;;;2.40;;
62990;SDS011;49084;48.204;16.202;2023-08-12T08:12:08;2.85;;;1.92;;
62990;SDS011;49084;48.204;16.202;2023-08-12T08:14:34;3.38;;;2.20;;
62990;SDS011;49084;48.204;16.202;2023-08-12T08:17:00;5.00;;;1.80;;
62990;SDS011;49084;48.204;16.202;2023-08-12T08:19:26;7.75;;;1.90;;
62990;SDS011;49084;48.204;16.202;2023-08-12T08:21:52;3.63;;;1.92;;
62990;SDS011;49084;48.204;16.202;2023-08-12T08:24:17;1.50;;;1.40;;
62990;SDS011;49084;48.204;16.202;2023-08-12T08:26:43;3.30;;;1.90;;
62990;SDS011;49084;48.204;16.202;2023-08-12T08:29:11;4.13;;;2.00;;
62990;SDS011;49084;48.204;16.202;2023-08-12T08:31:36;2.22;;;1.70;;
62990;SDS011;49084;48.204;16.202;2023-08-12T08:34:02;3.10;;;1.77;;
62990;SDS011;49084;48.204;16.202;2023-08-12T08:36:28;2.20;;;1.33;;
62990;SDS011;49084;48.204;16.202;2023-08-12T08:38:53;4.80;;;2.00;;
62990;SDS011;49084;48.204;16.202;2023-08-12T08:41:19;1.70;;;1.60;;
62990;SDS011;49084;48.204;16.202;2023-08-12T08:43:46;3.17;;;1.90;;
62990;SDS011;49084;48.204;16.202;2023-08-12T08:46:14;2.10;;;1.33;;
62990;SDS011;49084;48.204;16.202;2023-08-12T08:48:44;2.47;;;1.77;;
62990;SDS011;49084;48.204;16.202;2023-08-12T08:51:10;1.63;;;1.52;;
62990;SDS011;49084;48.204;16.202;2023-08-12T08:53:40;2.30;;;1.63;;
62990;SDS011;49084;48.204;16.202;2023-08-12T08:56:06;2.33;;;1.42;;
62990;SDS011;49084;48.204;16.202;2023-08-12T08:58:32;2.38;;;1.30;;
62990;SDS011;49084;48.204;16.202;2023-08-12T09:00:58;2.85;;;1.60;;
62990;SDS011;49084;48.204;16.202;2023-08-12T09:03:25;2.72;;;1.65;;
62990;SDS011;49084;48.204;16.202;2023-08-12T09:05:51;2.53;;;1.60;;
62990;SDS011;49084;48.204;16.202;2023-08-12T09:08:20;2.30;;;1.52;;
62990;SDS011;49084;48.204;16.202;2023-08-12T09:10:47;4.07;;;1.63;;
62990;SDS011;49084;48.204;16.202;2023-08-12T09:13:14;3.08;;;1.90;;
62990;SDS011;49084;48.204;16.202;2023-08-12T09:15:41;2.30;;;1.45;;
62990;SDS011;49084;48.204;16.202;2023-08-12T09:18:07;2.97;;;1.70;;
62990;SDS011;49084;48.204;16.202;2023-08-12T09:20:33;1.75;;;1.50;;
62990;SDS011;49084;48.204;16.202;2023-08-12T09:22:59;2.55;;;2.05;;
62990;SDS011;49084;48.204;16.202;2023-08-12T09:25:29;4.07;;;1.80;;
62990;SDS011;49084;48.204;16.202;2023-08-12T09:27:55;2.63;;;1.48;;
62990;SDS011;49084;48.204;16.202;2023-08-12T09:32:59;2.45;;;1.40;;
62990;SDS011;49084;48.204;16.202;2023-08-12T09:35:32;1.35;;;1.33;;
62990;SDS011;49084;48.204;16.202;2023-08-12T09:38:03;1.38;;;1.33;;
62990;SDS011;49084;48.204;16.202;2023-08-12T09:40:33;2.17;;;2.05;;
62990;SDS011;49084;48.204;16.202;2023-08-12T09:43:01;4.28;;;1.50;;
62990;SDS011;49084;48.204;16.202;2023-08-12T09:45:27;1.52;;;1.45;;
62990;SDS011;49084;48.204;16.202;2023-08-12T09:47:56;3.38;;;1.35;;
62990;SDS011;49084;48.204;16.202;2023-08-12T09:50:22;1.70;;;1.60;;
62990;SDS011;49084;48.204;16.202;2023-08-12T09:52:50;1.60;;;1.50;;
62990;SDS011;49084;48.204;16.202;2023-08-12T09:55:18;1.80;;;1.65;;
62990;SDS011;49084;48.204;16.202;2023-08-12T09:57:47;2.20;;;1.70;;
62990;SDS011;49084;48.204;16.202;2023-08-12T10:00:15;2.75;;;1.50;;
62990;SDS011;49084;48.204;16.202;2023-08-12T10:02:43;4.35;;;1.60;;
62990;SDS011;49084;48.204;16.202;2023-08-12T10:05:12;4.77;;;1.40;;
62990;SDS011;49084;48.204;16.202;2023-08-12T10:07:41;4.13;;;1.83;;
62990;SDS011;49084;48.204;16.202;2023-08-12T10:10:06;2.75;;;1.70;;
62990;SDS011;49084;48.204;16.202;2023-08-12T10:12:34;3.20;;;1.57;;
62990;SDS011;49084;48.204;16.202;2023-08-12T10:15:01;2.63;;;1.60;;
62990;SDS011;49084;48.204;16.202;2023-08-12T10:17:27;1.95;;;1.73;;
62990;SDS011;49084;48.204;16.202;2023-08-12T10:19:54;3.08;;;1.27;;
62990;SDS011;49084;48.204;16.202;2023-08-12T10:22:21;1.85;;;1.58;;
62990;SDS011;49084;48.204;16.202;2023-08-12T10:24:48;2.25;;;1.60;;
62990;SDS011;49084;48.204;16.202;2023-08-12T10:27:15;2.60;;;1.63;;
62990;SDS011;49084;48.204;16.202;2023-08-12T10:29:42;2.08;;;1.40;;
62990;SDS011;49084;48.204;16.202;2023-08-12T10:32:08;3.20;;;1.63;;
62990;SDS011;49084;48.204;16.202;2023-08-12T10:34:34;1.80;;;1.60;;
62990;SDS011;49084;48.204;16.202;2023-08-12T10:37:03;1.67;;;1.58;;
62990;SDS011;49084;48.204;16.202;2023-08-12T10:39:32;2.72;;;1.52;;
62990;SDS011;49084;48.204;16.202;2023-08-12T10:41:58;1.33;;;1.23;;
62990;SDS011;49084;48.204;16.202;2023-08-12T10:44:38;2.33;;;2.03;;
62990;SDS011;49084;48.204;16.202;2023-08-12T10:47:07;2.60;;;1.60;;
62990;SDS011;49084;48.204;16.202;2023-08-12T10:49:37;3.35;;;1.38;;
62990;SDS011;49084;48.204;16.202;2023-08-12T10:52:07;2.28;;;1.48;;
62990;SDS011;49084;48.204;16.202;2023-08-12T10:54:52;6.82;;;1.55;;
62990;SDS011;49084;48.204;16.202;2023-08-12T10:57:18;2.00;;;1.45;;
62990;SDS011;49084;48.204;16.202;2023-08-12T10:59:59;3.85;;;1.30;;
62990;SDS011;49084;48.204;16.202;2023-08-12T11:02:29;1.35;;;1.25;;
62990;SDS011;49084;48.204;16.202;2023-08-12T11:05:07;1.30;;;1.30;;
62990;SDS011;49084;48.204;16.202;2023-08-12T11:10:18;3.65;;;1.48;;
62990;SDS011;49084;48.204;16.202;2023-08-12T11:12:56;2.58;;;1.67;;
62990;SDS011;49084;48.204;16.202;2023-08-12T11:18:03;2.50;;;1.55;;
62990;SDS011;49084;48.204;16.202;2023-08-12T11:20:30;4.78;;;1.30;;
62990;SDS011;49084;48.204;16.202;2023-08-12T11:22:56;1.55;;;1.48;;
62990;SDS011;49084;48.204;16.202;2023-08-12T11:25:25;1.35;;;1.25;;
62990;SDS011;49084;48.204;16.202;2023-08-12T11:27:53;1.48;;;1.38;;
62990;SDS011;49084;48.204;16.202;2023-08-12T11:30:19;3.42;;;1.48;;
62990;SDS011;49084;48.204;16.202;2023-08-12T11:32:47;2.25;;;1.33;;
62990;SDS011;49084;48.204;16.202;2023-08-12T11:35:17;5.30;;;1.45;;
62990;SDS011;49084;48.204;16.202;2023-08-12T11:37:47;3.08;;;1.40;;
62990;SDS011;49084;48.204;16.202;2023-08-12T11:40:15;2.85;;;1.52;;
62990;SDS011;49084;48.204;16.202;2023-08-12T11:42:43;2.60;;;1.48;;
62990;SDS011;49084;48.204;16.202;2023-08-12T11:45:09;1.67;;;1.50;;
62990;SDS011;49084;48.204;16.202;2023-08-12T11:47:36;2.25;;;1.40;;
62990;SDS011;49084;48.204;16.202;2023-08-12T11:50:03;1.30;;;1.30;;
62990;SDS011;49084;48.204;16.202;2023-08-12T11:52:30;1.67;;;1.27;;
62990;SDS011;49084;48.204;16.202;2023-08-12T11:54:57;1.95;;;1.10;;
62990;SDS011;49084;48.204;16.202;2023-08-12T11:57:23;2.30;;;1.23;;
62990;SDS011;49084;48.204;16.202;2023-08-12T11:59:49;1.40;;;1.30;;
62990;SDS011;49084;48.204;16.202;2023-08-12T12:02:15;1.48;;;1.08;;
62990;SDS011;49084;48.204;16.202;2023-08-12T12:04:41;1.50;;;1.40;;
62990;SDS011;49084;48.204;16.202;2023-08-12T12:07:20;2.20;;;1.20;;
62990;SDS011;49084;48.204;16.202;2023-08-12T12:09:50;1.45;;;1.25;;
62990;SDS011;49084;48.204;16.202;2023-08-12T12:12:17;4.20;;;1.25;;
62990;SDS011;49084;48.204;16.202;2023-08-12T12:14:43;3.13;;;1.13;;
62990;SDS011;49084;48.204;16.202;2023-08-12T12:17:09;0.88;;;0.88;;
62990;SDS011;49084;48.204;16.202;2023-08-12T12:19:39;2.90;;;1.08;;
62990;SDS011;49084;48.204;16.202;2023-08-12T12:22:05;1.65;;;1.33;;
62990;SDS011;49084;48.204;16.202;2023-08-12T12:24:43;1.65;;;1.30;;
62990;SDS011;49084;48.204;16.202;2023-08-12T12:27:11;2.33;;;0.95;;
62990;SDS011;49084;48.204;16.202;2023-08-12T12:29:37;3.40;;;1.13;;
62990;SDS011;49084;48.204;16.202;2023-08-12T12:32:03;1.48;;;0.80;;
62990;SDS011;49084;48.204;16.202;2023-08-12T12:34:29;3.67;;;0.95;;
62990;SDS011;49084;48.204;16.202;2023-08-12T12:36:55;2.83;;;0.93;;
62990;SDS011;49084;48.204;16.202;2023-08-12T12:39:20;1.85;;;0.90;;
62990;SDS011;49084;48.204;16.202;2023-08-12T12:41:48;1.10;;;0.95;;
62990;SDS011;49084;48.204;16.202;2023-08-12T12:44:14;1.52;;;0.90;;
62990;SDS011;49084;48.204;16.202;2023-08-12T12:46:40;2.05;;;0.88;;
62990;SDS011;49084;48.204;16.202;2023-08-12T12:49:05;1.08;;;0.90;;
62990;SDS011;49084;48.204;16.202;2023-08-12T12:51:31;1.40;;;0.90;;
62990;SDS011;49084;48.204;16.202;2023-08-12T12:53:57;0.75;;;0.73;;
62990;SDS011;49084;48.204;16.202;2023-08-12T12:56:22;2.70;;;0.90;;
62990;SDS011;49084;48.204;16.202;2023-08-12T12:58:48;0.70;;;0.70;;
62990;SDS011;49084;48.204;16.202;2023-08-12T13:01:14;0.98;;;0.90;;
62990;SDS011;49084;48.204;16.202;2023-08-12T13:03:40;0.70;;;0.70;;
62990;SDS011;49084;48.204;16.202;2023-08-12T13:06:05;1.38;;;0.80;;
62990;SDS011;49084;48.204;16.202;2023-08-12T13:08:31;2.63;;;1.00;;
62990;SDS011;49084;48.204;16.202;2023-08-12T13:10:57;1.13;;;1.05;;
62990;SDS011;49084;48.204;16.202;2023-08-12T13:13:23;0.93;;;0.68;;
62990;SDS011;49084;48.204;16.202;2023-08-12T13:15:49;3.65;;;0.95;;
62990;SDS011;49084;48.204;16.202;2023-08-12T13:18:14;1.88;;;0.82;;
62990;SDS011;49084;48.204;16.202;2023-08-12T13:20:40;0.85;;;0.80;;
62990;SDS011;49084;48.204;16.202;2023-08-12T13:23:06;1.67;;;1.25;;
62990;SDS011;49084;48.204;16.202;2023-08-12T13:25:32;1.73;;;0.90;;
62990;SDS011;49084;48.204;16.202;2023-08-12T13:27:59;1.52;;;0.77;;
62990;SDS011;49084;48.204;16.202;2023-08-12T13:30:25;2.40;;;1.02;;
62990;SDS011;49084;48.204;16.202;2023-08-12T13:32:51;0.68;;;0.68;;
62990;SDS011;49084;48.204;16.202;2023-08-12T13:35:17;0.73;;;0.63;;
62990;SDS011;49084;48.204;16.202;2023-08-12T13:37:43;1.67;;;1.00;;
62990;SDS011;49084;48.204;16.202;2023-08-12T13:40:08;0.85;;;0.80;;
62990;SDS011;49084;48.204;16.202;2023-08-12T13:42:36;1.17;;;1.00;;
62990;SDS011;49084;48.204;16.202;2023-08-12T13:45:02;0.80;;;0.80;;
62990;SDS011;49084;48.204;16.202;2023-08-12T13:47:28;1.40;;;0.98;;
62990;SDS011;49084;48.204;16.202;2023-08-12T13:49:54;1.17;;;1.08;;
62990;SDS011;49084;48.204;16.202;2023-08-12T13:52:19;1.20;;;1.10;;
62990;SDS011;49084;48.204;16.202;2023-08-12T13:54:45;1.77;;;0.82;;
62990;SDS011;49084;48.204;16.202;2023-08-12T13:57:10;1.25;;;0.93;;
62990;SDS011;49084;48.204;16.202;2023-08-12T13:59:36;1.10;;;1.00;;
62990;SDS011;49084;48.204;16.202;2023-08-12T14:02:02;1.85;;;1.38;;
62990;SDS011;49084;48.204;16.202;2023-08-12T14:04:28;1.40;;;1.10;;
62990;SDS011;49084;48.204;16.202;2023-08-12T14:06:53;1.42;;;1.15;;
62990;SDS011;49084;48.204;16.202;2023-08-12T14:09:19;2.47;;;0.98;;
62990;SDS011;49084;48.204;16.202;2023-08-12T14:11:45;4.05;;;1.25;;
62990;SDS011;49084;48.204;16.202;2023-08-12T14:14:10;1.13;;;0.80;;
62990;SDS011;49084;48.204;16.202;2023-08-12T14:16:36;1.10;;;1.10;;
62990;SDS011;49084;48.204;16.202;2023-08-12T14:19:02;1.33;;;0.90;;
62990;SDS011;49084;48.204;16.202;2023-08-12T14:21:28;1.98;;;1.17;;
62990;SDS011;49084;48.204;16.202;2023-08-12T14:23:53;1.27;;;1.00;;
62990;SDS011;49084;48.204;16.202;2023-08-12T14:26:19;1.00;;;1.00;;
62990;SDS011;49084;48.204;16.202;2023-08-12T14:28:44;1.70;;;1.10;;
62990;SDS011;49084;48.204;16.202;2023-08-12T14:31:10;1.42;;;1.33;;
62990;SDS011;49084;48.204;16.202;2023-08-12T14:33:36;1.00;;;1.00;;
62990;SDS011;49084;48.204;16.202;2023-08-12T14:36:02;1.20;;;1.00;;
62990;SDS011;49084;48.204;16.202;2023-08-12T14:38:28;1.42;;;1.08;;
62990;SDS011;49084;48.204;16.202;2023-08-12T14:40:54;3.72;;;1.08;;